PWSweather.com
Personal Weather Stations
Station Observations
COONRAPIDS
Minneapolis, MN 55433

Minneapolis, MN 55433

Lat: 45.187721, Lon: -93.36828

Elevation: 898

Station Type: Davis Vantage Pro 2

Latest ConditionsUpdated 11:10:01 AM CST Sunday, Jan 26, 2020
Currently Today's Max Today's Min Today's Average
Temperature 26.7°F-2.9°C 26.9°F-2.8°C 23.9°F-4.5°C 25.0°F-3.9°C
Dew Point 21.1°F-6.1°C 21.6°F-5.8°C 19.8°F-6.8°C 20.6°F-6.3°C
Winds Calm Calm 2.3 mph -3.7 kmh - - 0.2 mph 0.3 kmh
Wind Gusts -- 5.8 mph9.3 kmh - -
Humidity 79% 85% 79% 83%
Pressure 29.96 in1014.6 mb 29.99 in1015.6 mb 29.94 in1013.9 mb -
Hour Temp Dew Point Humidity Winds Wind Gusts Pressure Precip Precip Rate Daily Precip Total
11:10 AM 26.7°F-2.9°C 21.1°F-6.1°C 79% Calm Calm -- 29.96 in1014.6 mb - 0.00 in0.0 mm 0.00 in0.0 mm
11:00 AM 26.9°F-2.8°C 21.6°F-5.8°C 80% Calm Calm -- 29.97 in1014.9 mb - 0.00 in0.0 mm 0.00 in0.0 mm
10:50 AM 26.6°F-3.0°C 21.6°F-5.8°C 81% Calm Calm -- 29.97 in1014.9 mb - 0.00 in0.0 mm 0.00 in0.0 mm
10:40 AM 26.3°F-3.2°C 21.3°F-5.9°C 81% Calm Calm -- 29.97 in1014.9 mb - 0.00 in0.0 mm 0.00 in0.0 mm
10:30 AM 26.0°F-3.3°C 21.3°F-5.9°C 82% Calm Calm -- 29.97 in1014.9 mb - 0.00 in0.0 mm 0.00 in0.0 mm
10:20 AM 25.7°F-3.5°C 20.9°F-6.2°C 82% Calm Calm 2.3 mph3.7 kmh 29.96 in1014.6 mb - 0.00 in0.0 mm 0.00 in0.0 mm
10:10 AM 25.3°F-3.7°C 20.9°F-6.2°C 83% Calm Calm -- 29.97 in1014.9 mb - 0.00 in0.0 mm 0.00 in0.0 mm
10:00 AM 25.0°F-3.9°C 20.6°F-6.3°C 83% Calm Calm -- 29.96 in1014.6 mb - 0.00 in0.0 mm 0.00 in0.0 mm
09:50 AM 24.7°F-4.1°C 20.2°F-6.6°C 83% Calm Calm -- 29.96 in1014.6 mb - 0.00 in0.0 mm 0.00 in0.0 mm
09:40 AM 24.6°F-4.1°C 20.2°F-6.6°C 83% Calm Calm -- 29.96 in1014.6 mb - 0.00 in0.0 mm 0.00 in0.0 mm
09:30 AM 24.5°F-4.2°C 20.1°F-6.6°C 83% Calm Calm -- 29.96 in1014.6 mb - 0.00 in0.0 mm 0.00 in0.0 mm
09:20 AM 24.5°F-4.2°C 20.4°F-6.4°C 84% Calm Calm -- 29.96 in1014.6 mb - 0.00 in0.0 mm 0.00 in0.0 mm
09:10 AM 24.4°F-4.2°C 20.3°F-6.5°C 84% Calm Calm -- 29.96 in1014.6 mb - 0.00 in0.0 mm 0.00 in0.0 mm
09:00 AM 24.2°F-4.3°C 20.1°F-6.6°C 84% Calm Calm -- 29.96 in1014.6 mb - 0.00 in0.0 mm 0.00 in0.0 mm
08:50 AM 24.2°F-4.3°C 20.1°F-6.6°C 84% Calm Calm -- 29.96 in1014.6 mb - 0.00 in0.0 mm 0.00 in0.0 mm
08:40 AM 24.2°F-4.3°C 20.1°F-6.6°C 84% Calm Calm -- 29.96 in1014.6 mb - 0.00 in0.0 mm 0.00 in0.0 mm
08:30 AM 24.1°F-4.4°C 20.0°F-6.7°C 84% Calm Calm -- 29.96 in1014.6 mb - 0.00 in0.0 mm 0.00 in0.0 mm
08:20 AM 24.0°F-4.4°C 19.9°F-6.7°C 84% Calm Calm -- 29.96 in1014.6 mb - 0.00 in0.0 mm 0.00 in0.0 mm
08:10 AM 23.9°F-4.5°C 19.8°F-6.8°C 84% Calm Calm -- 29.96 in1014.6 mb - 0.00 in0.0 mm 0.00 in0.0 mm
08:00 AM 23.9°F-4.5°C 19.8°F-6.8°C 84% Calm Calm -- 29.96 in1014.6 mb - 0.00 in0.0 mm 0.00 in0.0 mm
07:50 AM 24.0°F-4.4°C 19.9°F-6.7°C 84% Calm Calm -- 29.96 in1014.6 mb - 0.00 in0.0 mm 0.00 in0.0 mm
07:40 AM 24.0°F-4.4°C 19.9°F-6.7°C 84% Calm Calm 1.2 mph1.9 kmh 29.96 in1014.6 mb - 0.00 in0.0 mm 0.00 in0.0 mm
07:30 AM 24.0°F-4.4°C 19.9°F-6.7°C 84% Calm Calm -- 29.96 in1014.6 mb - 0.00 in0.0 mm 0.00 in0.0 mm
07:20 AM 24.0°F-4.4°C 19.9°F-6.7°C 84% Calm Calm -- 29.95 in1014.2 mb - 0.00 in0.0 mm 0.00 in0.0 mm
07:10 AM 24.0°F-4.4°C 20.1°F-6.6°C 85% Calm Calm -- 29.95 in1014.2 mb - 0.00 in0.0 mm 0.00 in0.0 mm
07:00 AM 24.1°F-4.4°C 20.0°F-6.7°C 84% Calm Calm -- 29.95 in1014.2 mb - 0.00 in0.0 mm 0.00 in0.0 mm
06:50 AM 24.1°F-4.4°C 20.0°F-6.7°C 84% Calm Calm -- 29.95 in1014.2 mb - 0.00 in0.0 mm 0.00 in0.0 mm
06:40 AM 24.2°F-4.3°C 20.1°F-6.6°C 84% Calm Calm -- 29.95 in1014.2 mb - 0.00 in0.0 mm 0.00 in0.0 mm
06:30 AM 24.2°F-4.3°C 20.3°F-6.5°C 85% Calm Calm -- 29.95 in1014.2 mb - 0.00 in0.0 mm 0.00 in0.0 mm
06:20 AM 24.3°F-4.3°C 20.4°F-6.4°C 85% Calm Calm -- 29.94 in1013.9 mb - 0.00 in0.0 mm 0.00 in0.0 mm
06:10 AM 24.3°F-4.3°C 20.4°F-6.4°C 85% Calm Calm -- 29.94 in1013.9 mb - 0.00 in0.0 mm 0.00 in0.0 mm
06:00 AM 24.4°F-4.2°C 20.3°F-6.5°C 84% Calm Calm -- 29.95 in1014.2 mb - 0.00 in0.0 mm 0.00 in0.0 mm
05:50 AM 24.4°F-4.2°C 20.3°F-6.5°C 84% Calm Calm -- 29.95 in1014.2 mb - 0.00 in0.0 mm 0.00 in0.0 mm
05:40 AM 24.4°F-4.2°C 20.3°F-6.5°C 84% Calm Calm -- 29.95 in1014.2 mb - 0.00 in0.0 mm 0.00 in0.0 mm
05:30 AM 24.4°F-4.2°C 20.3°F-6.5°C 84% Calm Calm -- 29.95 in1014.2 mb - 0.00 in0.0 mm 0.00 in0.0 mm
05:20 AM 24.5°F-4.2°C 20.4°F-6.4°C 84% Calm Calm -- 29.95 in1014.2 mb - 0.00 in0.0 mm 0.00 in0.0 mm
05:10 AM 24.6°F-4.1°C 20.5°F-6.4°C 84% Calm Calm -- 29.95 in1014.2 mb - 0.00 in0.0 mm 0.00 in0.0 mm
05:00 AM 24.7°F-4.1°C 20.6°F-6.3°C 84% Calm Calm -- 29.95 in1014.2 mb - 0.00 in0.0 mm 0.00 in0.0 mm
04:50 AM 24.7°F-4.1°C 20.3°F-6.5°C 83% 1.2 mph W1.9 kmh W 1.2 mph1.9 kmh 29.96 in1014.6 mb - 0.00 in0.0 mm 0.00 in0.0 mm
04:40 AM 24.7°F-4.1°C 20.3°F-6.5°C 83% Calm Calm -- 29.96 in1014.6 mb - 0.00 in0.0 mm 0.00 in0.0 mm
04:30 AM 24.7°F-4.1°C 20.3°F-6.5°C 83% Calm Calm -- 29.96 in1014.6 mb - 0.00 in0.0 mm 0.00 in0.0 mm
04:20 AM 24.7°F-4.1°C 20.3°F-6.5°C 83% Calm Calm -- 29.96 in1014.6 mb - 0.00 in0.0 mm 0.00 in0.0 mm
04:10 AM 24.7°F-4.1°C 20.3°F-6.5°C 83% Calm Calm -- 29.96 in1014.6 mb - 0.00 in0.0 mm 0.00 in0.0 mm
04:00 AM 24.8°F-4.0°C 20.4°F-6.4°C 83% Calm Calm -- 29.96 in1014.6 mb - 0.00 in0.0 mm 0.00 in0.0 mm
03:50 AM 25.0°F-3.9°C 20.3°F-6.5°C 82% Calm Calm -- 29.96 in1014.6 mb - 0.00 in0.0 mm 0.00 in0.0 mm
03:40 AM 25.1°F-3.8°C 20.7°F-6.3°C 83% 1.2 mph WNW1.9 kmh WNW 2.3 mph3.7 kmh 29.96 in1014.6 mb - 0.00 in0.0 mm 0.00 in0.0 mm
03:30 AM 25.2°F-3.8°C 20.5°F-6.4°C 82% Calm Calm -- 29.97 in1014.9 mb - 0.00 in0.0 mm 0.00 in0.0 mm
03:20 AM 25.3°F-3.7°C 20.6°F-6.3°C 82% Calm Calm -- 29.97 in1014.9 mb - 0.00 in0.0 mm 0.00 in0.0 mm
03:10 AM 25.4°F-3.7°C 20.7°F-6.3°C 82% Calm Calm -- 29.97 in1014.9 mb - 0.00 in0.0 mm 0.00 in0.0 mm
03:00 AM 25.4°F-3.7°C 20.7°F-6.3°C 82% Calm Calm 2.3 mph3.7 kmh 29.97 in1014.9 mb - 0.00 in0.0 mm 0.00 in0.0 mm
02:50 AM 25.6°F-3.6°C 20.9°F-6.2°C 82% Calm Calm 2.3 mph3.7 kmh 29.97 in1014.9 mb - 0.00 in0.0 mm 0.00 in0.0 mm
02:40 AM 25.8°F-3.4°C 21.3°F-5.9°C 83% Calm Calm -- 29.98 in1015.2 mb - 0.00 in0.0 mm 0.00 in0.0 mm
02:30 AM 25.8°F-3.4°C 21.3°F-5.9°C 83% Calm Calm -- 29.98 in1015.2 mb - 0.00 in0.0 mm 0.00 in0.0 mm
02:20 AM 25.8°F-3.4°C 21.3°F-5.9°C 83% Calm Calm -- 29.98 in1015.2 mb - 0.00 in0.0 mm 0.00 in0.0 mm
02:10 AM 25.8°F-3.4°C 21.1°F-6.1°C 82% Calm Calm 2.3 mph3.7 kmh 29.98 in1015.2 mb - 0.00 in0.0 mm 0.00 in0.0 mm
02:00 AM 25.7°F-3.5°C 21.0°F-6.1°C 82% Calm Calm -- 29.98 in1015.2 mb - 0.00 in0.0 mm 0.00 in0.0 mm
01:50 AM 25.7°F-3.5°C 21.0°F-6.1°C 82% Calm Calm -- 29.98 in1015.2 mb - 0.00 in0.0 mm 0.00 in0.0 mm
01:40 AM 25.8°F-3.4°C 21.1°F-6.1°C 82% Calm Calm 2.3 mph3.7 kmh 29.98 in1015.2 mb - 0.00 in0.0 mm 0.00 in0.0 mm
01:30 AM 25.8°F-3.4°C 21.1°F-6.1°C 82% Calm Calm 3.5 mph5.6 kmh 29.97 in1014.9 mb - 0.00 in0.0 mm 0.00 in0.0 mm
01:20 AM 25.9°F-3.4°C 21.2°F-6.0°C 82% 1.2 mph WNW1.9 kmh WNW 3.5 mph5.6 kmh 29.97 in1014.9 mb - 0.00 in0.0 mm 0.00 in0.0 mm
01:10 AM 26.0°F-3.3°C 21.3°F-5.9°C 82% 1.2 mph W1.9 kmh W 4.6 mph7.4 kmh 29.98 in1015.2 mb - 0.00 in0.0 mm 0.00 in0.0 mm
01:00 AM 26.1°F-3.3°C 21.4°F-5.9°C 82% Calm Calm -- 29.98 in1015.2 mb - 0.00 in0.0 mm 0.00 in0.0 mm
12:50 AM 26.1°F-3.3°C 21.1°F-6.1°C 81% 2.3 mph W3.7 kmh W 4.6 mph7.4 kmh 29.98 in1015.2 mb - 0.00 in0.0 mm 0.00 in0.0 mm
12:40 AM 26.1°F-3.3°C 21.1°F-6.1°C 81% 1.2 mph WNW1.9 kmh WNW 3.5 mph5.6 kmh 29.98 in1015.2 mb - 0.00 in0.0 mm 0.00 in0.0 mm
12:30 AM 26.1°F-3.3°C 21.1°F-6.1°C 81% 1.2 mph WNW1.9 kmh WNW 3.5 mph5.6 kmh 29.98 in1015.2 mb - 0.00 in0.0 mm 0.00 in0.0 mm
12:20 AM 26.1°F-3.3°C 21.1°F-6.1°C 81% Calm Calm -- 29.98 in1015.2 mb - 0.00 in0.0 mm 0.00 in0.0 mm
12:10 AM 26.2°F-3.2°C 21.2°F-6.0°C 81% 2.3 mph SW3.7 kmh SW 3.5 mph5.6 kmh 29.99 in1015.6 mb - 0.00 in0.0 mm 0.00 in0.0 mm
12:00 AM 26.3°F-3.2°C 21.3°F-5.9°C 81% 1.2 mph W1.9 kmh W 5.8 mph9.3 kmh 29.98 in1015.2 mb - 0.00 in0.0 mm 0.00 in0.0 mm